Time;durP1;ratioP1;P1;durP2;ratioP2;P2;SDS_P1;SDS_P2;PMS_P1;PMS_P2;Temp;Humidity;BMP_temperature;BMP_pressure;BME280_temperature;BME280_humidity;BME280_pressure;Samples;Min_cycle;Max_cycle;Signal;HPM_P1;HPM_P2
2023/12/19 00:00:04;;;;;;;13.23;7.28;;;6.20;99.90;;;;;;5017359;28;20040;-72
2023/12/19 00:02:30;;;;;;;15.23;7.82;;;6.10;99.90;;;;;;5008599;28;20026;-72
2023/12/19 00:04:55;;;;;;;13.82;7.03;;;6.20;99.90;;;;;;5019801;28;20445;-74
2023/12/19 00:07:21;;;;;;;12.35;6.43;;;6.20;99.90;;;;;;5016454;28;20056;-73
2023/12/19 00:09:46;;;;;;;13.50;6.60;;;6.20;99.90;;;;;;5015272;28;20424;-73
2023/12/19 00:12:12;;;;;;;15.60;7.43;;;6.10;99.90;;;;;;5018820;28;20065;-73
2023/12/19 00:14:38;;;;;;;16.08;6.50;;;6.10;99.90;;;;;;5008282;28;20061;-73
2023/12/19 00:17:03;;;;;;;14.95;7.90;;;6.20;99.90;;;;;;5019725;28;20044;-73
2023/12/19 00:19:29;;;;;;;13.90;6.60;;;6.20;99.90;;;;;;5012391;28;20437;-73
2023/12/19 00:21:56;;;;;;;13.95;6.63;;;6.20;99.90;;;;;;5018390;28;20096;-73
2023/12/19 00:24:21;;;;;;;15.20;8.02;;;6.20;99.90;;;;;;5013393;28;20397;-73
2023/12/19 00:26:47;;;;;;;14.23;7.50;;;6.20;99.90;;;;;;5016355;28;20045;-73
2023/12/19 00:29:12;;;;;;;12.40;6.95;;;6.20;99.90;;;;;;5031406;28;20546;-73
2023/12/19 00:31:38;;;;;;;18.42;7.70;;;6.20;99.90;;;;;;5011863;28;20046;-73
2023/12/19 00:34:03;;;;;;;13.65;6.93;;;6.20;99.90;;;;;;5007405;28;20386;-73
2023/12/19 00:36:29;;;;;;;14.10;6.55;;;6.20;99.90;;;;;;5011705;28;20061;-75
2023/12/19 00:38:54;;;;;;;12.32;6.10;;;6.20;99.90;;;;;;5010028;28;20101;-74
2023/12/19 00:41:20;;;;;;;19.35;8.20;;;6.20;99.90;;;;;;5014878;28;20116;-75
2023/12/19 00:43:46;;;;;;;12.05;6.93;;;6.20;99.90;;;;;;5019935;28;20078;-75
2023/12/19 00:46:12;;;;;;;13.50;6.65;;;6.20;99.90;;;;;;5022061;28;20033;-74
2023/12/19 00:48:38;;;;;;;11.38;6.55;;;6.20;99.90;;;;;;5016712;28;20041;-74
2023/12/19 00:51:09;;;;;;;12.70;6.75;;;6.20;99.90;;;;;;5017202;28;20068;-74
2023/12/19 00:53:34;;;;;;;14.98;6.63;;;6.20;99.90;;;;;;5022329;28;20059;-74
2023/12/19 00:56:00;;;;;;;12.35;6.53;;;6.20;99.90;;;;;;5019338;28;20033;-74
2023/12/19 00:58:25;;;;;;;12.13;5.85;;;6.20;99.90;;;;;;5020875;28;20108;-74
2023/12/19 01:00:51;;;;;;;11.88;6.03;;;6.20;99.90;;;;;;5019982;28;20030;-75
2023/12/19 01:03:16;;;;;;;12.60;6.40;;;6.20;99.90;;;;;;5031016;28;20140;-74
2023/12/19 01:05:43;;;;;;;13.38;6.65;;;6.20;99.90;;;;;;5018149;28;20089;-75
2023/12/19 01:08:09;;;;;;;11.65;6.15;;;6.20;99.90;;;;;;5020714;28;20128;-74
2023/12/19 01:10:34;;;;;;;12.50;6.43;;;6.20;99.90;;;;;;5022059;28;20125;-74
2023/12/19 01:13:00;;;;;;;13.18;5.65;;;6.10;99.90;;;;;;5018013;28;20033;-74
2023/12/19 01:15:25;;;;;;;12.23;6.70;;;6.10;99.90;;;;;;5038017;28;20044;-75
2023/12/19 01:17:51;;;;;;;12.10;5.60;;;6.10;99.90;;;;;;5015819;28;20044;-74
2023/12/19 01:20:16;;;;;;;10.18;5.65;;;6.20;99.90;;;;;;5024445;28;20034;-75
2023/12/19 01:22:42;;;;;;;13.30;6.03;;;6.10;99.90;;;;;;5011019;28;20171;-74
2023/12/19 01:25:07;;;;;;;10.23;5.20;;;6.10;99.90;;;;;;5036292;28;20350;-74
2023/12/19 01:27:33;;;;;;;10.13;5.38;;;6.10;99.90;;;;;;5022127;28;20060;-74
2023/12/19 01:29:58;;;;;;;11.68;6.10;;;6.10;99.90;;;;;;5022459;28;20058;-74
2023/12/19 01:32:24;;;;;;;10.15;5.28;;;6.20;99.90;;;;;;5020144;28;20041;-75
2023/12/19 01:34:49;;;;;;;9.88;4.95;;;6.20;99.90;;;;;;5013640;28;20033;-74
2023/12/19 01:37:14;;;;;;;12.52;4.90;;;6.10;99.90;;;;;;5016301;28;20376;-75
2023/12/19 01:39:40;;;;;;;8.50;4.75;;;6.10;99.90;;;;;;5017005;28;20030;-74
2023/12/19 01:42:06;;;;;;;9.15;5.70;;;6.10;99.90;;;;;;5022059;28;20045;-74
2023/12/19 01:44:31;;;;;;;8.55;4.75;;;6.20;99.90;;;;;;5014646;28;20085;-75
2023/12/19 01:46:57;;;;;;;9.60;4.93;;;6.10;99.90;;;;;;5017460;28;20048;-75
2023/12/19 01:49:22;;;;;;;8.80;3.80;;;6.10;99.90;;;;;;5010710;28;20042;-74
2023/12/19 01:51:48;;;;;;;11.38;4.95;;;6.10;99.90;;;;;;5020371;28;20046;-74
2023/12/19 01:54:15;;;;;;;8.98;4.45;;;6.10;99.90;;;;;;5017495;28;20455;-74
2023/12/19 01:56:40;;;;;;;11.00;4.72;;;6.10;99.90;;;;;;5019635;28;20026;-74
2023/12/19 01:59:06;;;;;;;7.80;4.15;;;6.10;99.90;;;;;;5015671;28;20338;-75
2023/12/19 02:01:35;;;;;;;10.25;4.35;;;6.10;99.90;;;;;;5015719;28;20056;-75
2023/12/19 02:04:01;;;;;;;9.18;3.78;;;6.10;99.90;;;;;;5021624;28;20034;-74
2023/12/19 02:06:27;;;;;;;8.45;3.78;;;6.10;99.90;;;;;;5010105;28;20504;-75
2023/12/19 02:08:52;;;;;;;8.90;4.35;;;6.10;99.90;;;;;;5018384;28;20155;-74
2023/12/19 02:11:18;;;;;;;8.63;4.40;;;6.10;99.90;;;;;;5021901;28;20342;-75
2023/12/19 02:13:44;;;;;;;9.52;4.95;;;6.00;99.90;;;;;;5023456;28;20149;-75
2023/12/19 02:16:10;;;;;;;8.27;4.00;;;6.00;99.90;;;;;;5023020;28;20104;-75
2023/12/19 02:18:35;;;;;;;9.50;5.20;;;6.00;99.90;;;;;;5012929;28;20480;-75
2023/12/19 02:21:01;;;;;;;8.90;4.18;;;6.00;99.90;;;;;;5014882;28;20060;-75
2023/12/19 02:23:26;;;;;;;7.53;4.18;;;6.00;99.90;;;;;;5040120;28;20398;-75
2023/12/19 02:25:52;;;;;;;7.55;3.50;;;6.00;99.90;;;;;;5018124;28;20349;-75
2023/12/19 02:28:18;;;;;;;7.65;4.18;;;6.00;99.90;;;;;;5020547;28;20032;-75
2023/12/19 02:30:44;;;;;;;8.40;3.80;;;5.90;99.90;;;;;;5014428;28;20514;-75
2023/12/19 02:33:09;;;;;;;10.88;5.10;;;6.00;99.90;;;;;;5013333;28;20029;-75
2023/12/19 02:35:35;;;;;;;9.38;4.53;;;5.90;99.90;;;;;;5038014;28;20462;-75
2023/12/19 02:38:00;;;;;;;7.72;3.95;;;5.90;99.90;;;;;;5013693;28;20037;-75
2023/12/19 02:40:26;;;;;;;8.77;4.53;;;6.00;99.90;;;;;;5012317;28;20156;-75
2023/12/19 02:42:51;;;;;;;9.40;4.03;;;6.00;99.90;;;;;;5024460;28;20038;-75
2023/12/19 02:45:17;;;;;;;7.55;4.95;;;5.90;99.90;;;;;;5017551;28;20193;-75
2023/12/19 02:47:43;;;;;;;9.98;4.75;;;5.90;99.90;;;;;;5023146;28;20037;-75
2023/12/19 02:50:08;;;;;;;8.45;3.85;;;5.90;99.90;;;;;;5012094;28;20030;-75
2023/12/19 02:52:34;;;;;;;9.70;4.80;;;5.90;99.90;;;;;;5016192;28;20033;-75
2023/12/19 02:54:59;;;;;;;6.45;4.07;;;5.90;99.90;;;;;;5015228;28;20080;-74
2023/12/19 02:57:25;;;;;;;11.75;4.45;;;5.90;99.90;;;;;;5019680;28;20057;-75
2023/12/19 02:59:50;;;;;;;9.23;3.88;;;5.90;99.90;;;;;;5020673;28;20189;-75
2023/12/19 03:02:16;;;;;;;7.05;3.67;;;5.90;99.90;;;;;;5013681;28;20467;-74
2023/12/19 03:04:42;;;;;;;7.90;3.80;;;5.90;99.90;;;;;;5006324;28;20042;-75
2023/12/19 03:07:09;;;;;;;8.23;4.00;;;5.90;99.90;;;;;;5009714;28;20057;-75
2023/12/19 03:09:34;;;;;;;7.82;4.32;;;5.90;99.90;;;;;;5010527;28;20136;-74
2023/12/19 03:12:03;;;;;;;7.88;4.07;;;5.90;99.90;;;;;;5022549;28;20165;-75
2023/12/19 03:14:32;;;;;;;6.55;3.70;;;5.90;99.90;;;;;;5009858;28;20026;-75
2023/12/19 03:16:58;;;;;;;8.18;4.00;;;5.90;99.90;;;;;;5014412;28;20055;-75
2023/12/19 03:19:24;;;;;;;9.02;4.38;;;5.90;99.90;;;;;;5016165;28;20091;-75
2023/12/19 03:21:49;;;;;;;8.68;3.90;;;5.90;99.90;;;;;;5014521;28;20436;-75
2023/12/19 03:24:15;;;;;;;8.25;3.90;;;5.90;99.90;;;;;;5015949;28;20133;-75
2023/12/19 03:26:40;;;;;;;8.05;4.05;;;5.90;99.90;;;;;;5017318;28;20041;-75
2023/12/19 03:29:06;;;;;;;7.10;3.90;;;5.90;99.90;;;;;;5023043;28;20029;-75
2023/12/19 03:31:31;;;;;;;7.55;4.03;;;5.90;99.90;;;;;;5022162;28;20034;-75
2023/12/19 03:33:57;;;;;;;8.57;4.05;;;5.90;99.90;;;;;;5015010;28;20503;-75
2023/12/19 03:36:22;;;;;;;6.60;3.40;;;5.90;99.90;;;;;;5019798;28;20030;-75
2023/12/19 03:38:49;;;;;;;9.63;4.25;;;5.90;99.90;;;;;;5024526;28;20025;-75
2023/12/19 03:41:15;;;;;;;11.48;4.95;;;5.90;99.90;;;;;;5026246;28;20095;-75
2023/12/19 03:43:40;;;;;;;7.85;3.85;;;5.90;99.90;;;;;;5017224;28;20418;-75
2023/12/19 03:46:07;;;;;;;7.03;3.55;;;5.90;99.90;;;;;;5015248;28;20049;-75
2023/12/19 03:48:34;;;;;;;7.68;3.42;;;5.90;99.90;;;;;;5008908;28;20034;-75
2023/12/19 03:51:00;;;;;;;7.60;3.83;;;6.00;99.90;;;;;;5013680;28;20041;-74
2023/12/19 03:53:26;;;;;;;7.05;3.70;;;6.00;99.90;;;;;;5014972;28;20049;-74
2023/12/19 03:55:51;;;;;;;7.40;3.70;;;6.00;99.90;;;;;;5005993;28;20182;-75
2023/12/19 03:58:17;;;;;;;8.90;4.07;;;6.00;99.90;;;;;;5012503;28;20478;-75
2023/12/19 04:00:42;;;;;;;8.75;3.33;;;5.90;99.90;;;;;;5014639;28;20086;-75
2023/12/19 04:03:08;;;;;;;6.35;3.70;;;6.00;99.90;;;;;;5007763;28;20030;-75
2023/12/19 04:05:33;;;;;;;6.80;3.55;;;5.90;99.90;;;;;;5015189;28;20052;-73
2023/12/19 04:07:59;;;;;;;5.80;3.28;;;5.90;99.90;;;;;;5010865;28;20021;-75
2023/12/19 04:10:24;;;;;;;6.18;3.20;;;5.90;99.90;;;;;;5006957;28;20056;-75
2023/12/19 04:12:50;;;;;;;7.05;3.70;;;6.00;99.90;;;;;;5011668;28;20037;-75
2023/12/19 04:15:15;;;;;;;6.13;3.05;;;5.90;99.90;;;;;;5012651;28;20393;-75
2023/12/19 04:17:41;;;;;;;5.75;3.33;;;6.00;99.90;;;;;;5007032;28;20038;-75
2023/12/19 04:20:07;;;;;;;5.78;3.40;;;6.00;99.90;;;;;;5010898;28;20030;-75
2023/12/19 04:22:33;;;;;;;4.95;2.60;;;6.00;99.90;;;;;;5018154;28;20033;-75
2023/12/19 04:24:59;;;;;;;6.72;3.10;;;6.00;99.90;;;;;;5009714;28;20521;-75
2023/12/19 04:27:24;;;;;;;7.50;4.10;;;6.00;99.90;;;;;;5013680;28;20097;-76
2023/12/19 04:29:51;;;;;;;6.55;3.75;;;6.00;99.90;;;;;;5022752;28;20381;-75
2023/12/19 04:32:16;;;;;;;5.53;3.30;;;6.00;99.90;;;;;;5015576;28;20038;-75
2023/12/19 04:34:42;;;;;;;8.57;3.70;;;6.00;99.90;;;;;;5013653;28;20119;-76
2023/12/19 04:37:07;;;;;;;7.28;3.60;;;6.00;99.90;;;;;;5023095;28;20052;-75
2023/12/19 04:39:33;;;;;;;6.47;3.20;;;6.00;99.90;;;;;;5023171;28;20346;-75
2023/12/19 04:41:59;;;;;;;6.32;2.80;;;6.00;99.90;;;;;;5020941;28;20030;-75
2023/12/19 04:44:25;;;;;;;7.65;3.65;;;6.00;99.90;;;;;;5023459;28;20069;-75
2023/12/19 04:46:51;;;;;;;8.02;3.72;;;6.00;99.90;;;;;;5014275;28;20152;-75
2023/12/19 04:49:16;;;;;;;5.72;3.05;;;6.00;99.90;;;;;;5013672;28;20033;-75
2023/12/19 04:51:42;;;;;;;4.65;2.67;;;5.90;99.90;;;;;;5012125;28;20176;-75
2023/12/19 04:54:08;;;;;;;6.13;2.88;;;6.00;99.90;;;;;;5014255;28;20029;-75
2023/12/19 04:56:35;;;;;;;6.72;2.92;;;6.00;99.90;;;;;;5018572;28;20021;-75
2023/12/19 04:59:01;;;;;;;7.70;3.72;;;5.90;99.90;;;;;;5021433;28;20109;-74
2023/12/19 05:01:27;;;;;;;6.95;4.13;;;5.90;99.90;;;;;;5006725;28;20249;-74
2023/12/19 05:03:52;;;;;;;6.13;3.20;;;5.90;99.90;;;;;;5010555;28;20541;-75
2023/12/19 05:06:18;;;;;;;6.10;3.47;;;5.90;99.90;;;;;;5016960;28;20126;-75
2023/12/19 05:08:45;;;;;;;6.43;3.58;;;5.90;99.90;;;;;;5008554;28;20183;-74
2023/12/19 05:11:11;;;;;;;6.30;2.88;;;5.90;99.90;;;;;;5034595;28;20441;-74
2023/12/19 05:13:37;;;;;;;5.28;2.95;;;5.90;99.90;;;;;;5032780;28;20074;-75
2023/12/19 05:16:16;;;;;;;5.88;3.35;;;5.90;99.90;;;;;;5020756;28;20105;-74
2023/12/19 05:18:43;;;;;;;7.10;3.05;;;5.90;99.90;;;;;;5029580;28;20376;-75
2023/12/19 05:21:09;;;;;;;5.03;2.55;;;5.90;99.90;;;;;;5013221;28;20032;-74
2023/12/19 05:23:35;;;;;;;6.20;2.83;;;5.90;99.90;;;;;;5033785;28;20033;-78
2023/12/19 05:26:02;;;;;;;3.42;1.98;;;5.90;99.90;;;;;;5016597;28;20041;-73
2023/12/19 05:28:28;;;;;;;4.78;2.67;;;5.90;99.90;;;;;;5025350;28;20032;-71
2023/12/19 05:30:56;;;;;;;4.55;2.47;;;5.90;99.90;;;;;;5026375;28;20037;-73
2023/12/19 05:33:25;;;;;;;3.72;1.92;;;5.80;99.90;;;;;;5013366;28;20117;-73
2023/12/19 05:35:51;;;;;;;4.50;2.05;;;5.90;99.90;;;;;;5021744;28;20303;-73
2023/12/19 05:38:18;;;;;;;3.88;1.60;;;5.80;99.90;;;;;;5015712;28;20087;-74
2023/12/19 05:40:43;;;;;;;6.30;3.05;;;5.90;99.90;;;;;;5016288;28;20500;-73
2023/12/19 05:43:09;;;;;;;4.38;2.10;;;5.80;99.90;;;;;;5026336;28;20029;-73
2023/12/19 05:45:35;;;;;;;3.60;2.00;;;5.80;99.90;;;;;;5023111;28;20037;-73
2023/12/19 05:48:00;;;;;;;3.35;1.80;;;5.80;99.90;;;;;;5014643;28;20069;-73
2023/12/19 05:50:26;;;;;;;4.10;1.95;;;5.80;99.90;;;;;;5016181;28;20307;-73
2023/12/19 05:52:52;;;;;;;2.45;1.45;;;5.80;99.90;;;;;;5022151;28;20041;-73
2023/12/19 05:55:20;;;;;;;4.18;1.48;;;5.80;99.90;;;;;;5010521;28;20044;-71
2023/12/19 05:57:46;;;;;;;3.00;1.90;;;5.80;99.90;;;;;;5017133;28;20489;-72
2023/12/19 06:00:12;;;;;;;2.63;1.50;;;5.80;99.90;;;;;;5021948;28;20074;-73
2023/12/19 06:02:38;;;;;;;3.00;1.50;;;5.80;99.90;;;;;;5024155;28;20427;-72
2023/12/19 06:05:07;;;;;;;2.50;1.17;;;5.80;99.90;;;;;;5015371;28;20048;-73
2023/12/19 06:07:35;;;;;;;2.42;1.30;;;5.80;99.90;;;;;;5025683;28;20394;-73
2023/12/19 06:10:01;;;;;;;3.38;1.40;;;5.80;99.90;;;;;;5020158;28;20026;-73
2023/12/19 06:12:26;;;;;;;2.03;1.15;;;5.80;99.90;;;;;;5017255;28;20065;-73
2023/12/19 06:14:51;;;;;;;2.63;1.27;;;5.80;99.90;;;;;;5014105;28;20033;-73
2023/12/19 06:17:17;;;;;;;1.95;1.10;;;5.80;99.90;;;;;;5026660;28;20107;-73
2023/12/19 06:19:42;;;;;;;1.63;1.20;;;5.80;99.90;;;;;;5008651;28;20038;-73
2023/12/19 06:22:10;;;;;;;2.80;1.20;;;5.80;99.90;;;;;;5010551;28;20034;-73
2023/12/19 06:24:35;;;;;;;1.92;1.45;;;5.80;99.90;;;;;;5012058;28;20021;-72
2023/12/19 06:27:01;;;;;;;3.03;1.25;;;5.80;99.90;;;;;;5010960;28;20472;-72
2023/12/19 06:29:26;;;;;;;2.17;1.20;;;5.80;99.90;;;;;;5016694;28;20141;-72
2023/12/19 06:31:52;;;;;;;2.45;1.13;;;5.80;99.90;;;;;;5015128;28;20139;-71
2023/12/19 06:34:17;;;;;;;2.25;1.40;;;5.80;99.90;;;;;;5012556;28;20052;-71
2023/12/19 06:36:44;;;;;;;0.60;0.60;;;5.80;99.90;;;;;;5019639;28;20026;-69
2023/12/19 06:39:10;;;;;;;0.82;0.75;;;5.80;99.90;;;;;;5017475;28;20152;-69
2023/12/19 06:41:36;;;;;;;1.20;0.70;;;5.80;99.90;;;;;;5013669;28;20121;-71
2023/12/19 06:44:01;;;;;;;1.75;0.95;;;5.80;99.90;;;;;;5018411;28;20053;-71
2023/12/19 06:46:27;;;;;;;1.70;1.27;;;5.80;99.90;;;;;;5008389;28;20143;-70
2023/12/19 06:48:52;;;;;;;1.85;1.00;;;5.80;99.90;;;;;;5014254;28;20107;-71
2023/12/19 06:51:26;;;;;;;1.58;1.08;;;5.80;99.90;;;;;;5017277;28;20183;-66
2023/12/19 06:53:53;;;;;;;1.38;0.73;;;5.80;99.90;;;;;;5014319;28;20101;-70
2023/12/19 06:56:19;;;;;;;1.65;0.98;;;5.80;99.90;;;;;;5021617;28;20105;-70
2023/12/19 06:58:45;;;;;;;1.63;1.08;;;5.80;99.90;;;;;;5009500;28;20137;-70
2023/12/19 07:01:10;;;;;;;0.60;0.50;;;5.80;99.90;;;;;;5018981;28;20038;-71
2023/12/19 07:03:36;;;;;;;2.03;0.93;;;5.80;99.90;;;;;;5010577;28;20753;-71
2023/12/19 07:06:02;;;;;;;2.08;1.10;;;5.80;99.90;;;;;;5015906;28;20050;-71
2023/12/19 07:08:31;;;;;;;1.90;1.13;;;5.80;99.90;;;;;;5021885;28;20029;-71
2023/12/19 07:10:57;;;;;;;2.10;1.10;;;5.80;99.90;;;;;;5016149;28;20057;-71
2023/12/19 07:13:23;;;;;;;1.63;1.00;;;5.80;99.90;;;;;;5011692;28;20437;-70
2023/12/19 07:15:48;;;;;;;1.23;0.75;;;5.80;99.90;;;;;;5017098;28;20030;-71
2023/12/19 07:18:14;;;;;;;1.00;0.80;;;5.80;99.90;;;;;;5010723;28;20054;-72
2023/12/19 07:20:39;;;;;;;2.28;1.17;;;5.80;99.90;;;;;;5016122;28;20029;-70
2023/12/19 07:23:05;;;;;;;2.70;1.25;;;5.80;99.90;;;;;;5025079;28;20076;-71
2023/12/19 07:25:30;;;;;;;1.40;0.82;;;5.70;99.90;;;;;;5020283;28;20029;-71
2023/12/19 07:27:56;;;;;;;2.20;1.02;;;5.80;99.90;;;;;;5026159;28;20037;-72
2023/12/19 07:30:21;;;;;;;1.40;0.80;;;5.70;99.90;;;;;;5021371;28;20084;-70
2023/12/19 07:32:53;;;;;;;1.08;0.65;;;5.70;99.90;;;;;;5011345;28;20033;-71
2023/12/19 07:35:19;;;;;;;1.00;0.70;;;5.70;99.90;;;;;;5023686;28;20061;-71
2023/12/19 07:37:45;;;;;;;1.48;0.85;;;5.70;99.90;;;;;;5015715;28;20188;-70
2023/12/19 07:40:12;;;;;;;1.30;0.65;;;5.70;99.90;;;;;;5016152;28;20094;-71
2023/12/19 07:42:38;;;;;;;1.42;0.70;;;5.70;99.90;;;;;;5016533;28;20048;-70
2023/12/19 07:45:06;;;;;;;2.00;1.05;;;5.70;99.90;;;;;;5018988;28;20064;-71
2023/12/19 07:47:32;;;;;;;0.60;0.50;;;5.70;99.90;;;;;;5015128;28;20025;-70
2023/12/19 07:49:57;;;;;;;0.90;0.65;;;5.70;99.90;;;;;;5023996;28;20453;-70
2023/12/19 07:52:23;;;;;;;1.10;0.60;;;5.70;99.90;;;;;;5019658;28;20038;-71
2023/12/19 07:54:48;;;;;;;1.90;0.90;;;5.70;99.90;;;;;;5014887;28;20021;-71
2023/12/19 07:57:14;;;;;;;0.63;0.63;;;5.70;99.90;;;;;;5018037;28;20025;-71
2023/12/19 07:59:39;;;;;;;1.70;0.93;;;5.60;99.90;;;;;;5021958;28;20462;-71
2023/12/19 08:02:06;;;;;;;1.50;0.95;;;5.70;99.90;;;;;;5014218;28;20041;-70
2023/12/19 08:04:32;;;;;;;0.88;0.50;;;5.70;99.90;;;;;;5023414;28;20036;-72
2023/12/19 08:06:57;;;;;;;1.85;0.70;;;5.70;99.90;;;;;;5018026;28;20054;-71
2023/12/19 08:09:23;;;;;;;1.38;0.75;;;5.70;99.90;;;;;;5015619;28;20914;-70
2023/12/19 08:11:49;;;;;;;1.10;0.73;;;5.70;99.90;;;;;;5023815;28;20033;-71
2023/12/19 08:14:14;;;;;;;1.45;0.82;;;5.70;99.90;;;;;;5022099;28;20380;-71
2023/12/19 08:16:40;;;;;;;1.33;0.57;;;5.70;99.90;;;;;;5017539;28;20136;-71
2023/12/19 08:19:05;;;;;;;1.13;0.77;;;5.70;99.90;;;;;;5021139;28;20092;-70
2023/12/19 08:21:32;;;;;;;1.02;0.60;;;5.70;99.90;;;;;;5019159;28;20394;-70
2023/12/19 08:23:57;;;;;;;1.70;0.68;;;5.70;99.90;;;;;;5015561;28;20458;-71
2023/12/19 08:26:24;;;;;;;0.77;0.60;;;5.70;99.90;;;;;;5012096;28;20099;-70
2023/12/19 08:28:50;;;;;;;0.80;0.57;;;5.70;99.90;;;;;;5027480;28;20040;-71
2023/12/19 08:31:15;;;;;;;0.88;0.50;;;5.70;99.90;;;;;;5013012;28;20034;-71
2023/12/19 08:33:43;;;;;;;0.52;0.50;;;5.70;99.90;;;;;;5015096;28;20787;-70
2023/12/19 08:36:09;;;;;;;1.42;0.60;;;5.80;99.90;;;;;;5031774;28;20504;-71
2023/12/19 08:38:34;;;;;;;2.28;0.90;;;5.80;99.90;;;;;;5017133;28;20080;-70
2023/12/19 08:41:00;;;;;;;1.27;0.57;;;5.70;99.90;;;;;;5012178;28;20129;-70
2023/12/19 08:43:27;;;;;;;1.15;0.77;;;5.80;99.90;;;;;;5023233;28;20111;-70
2023/12/19 08:45:53;;;;;;;0.93;0.68;;;5.80;99.90;;;;;;5020475;28;20030;-70
2023/12/19 08:48:19;;;;;;;1.05;0.55;;;5.80;99.90;;;;;;5021854;28;20124;-71
2023/12/19 08:50:45;;;;;;;1.33;0.80;;;5.80;99.90;;;;;;5007949;28;20069;-71
2023/12/19 08:53:12;;;;;;;0.70;0.50;;;5.80;99.90;;;;;;5014731;28;20076;-71
2023/12/19 08:55:39;;;;;;;0.60;0.57;;;5.80;99.90;;;;;;5019986;28;20390;-70
2023/12/19 08:58:07;;;;;;;2.03;0.98;;;5.80;99.90;;;;;;5015242;28;20046;-71
2023/12/19 09:00:32;;;;;;;1.40;0.60;;;5.80;99.90;;;;;;5014329;28;20113;-70
2023/12/19 09:02:58;;;;;;;0.85;0.50;;;5.80;99.90;;;;;;5015214;28;20125;-71
2023/12/19 09:05:23;;;;;;;1.10;0.75;;;5.90;99.90;;;;;;5009238;28;20041;-70
2023/12/19 09:07:49;;;;;;;1.45;0.82;;;5.80;99.90;;;;;;5018429;28;20155;-71
2023/12/19 09:10:16;;;;;;;1.17;0.40;;;5.80;99.90;;;;;;5018147;28;20037;-71
2023/12/19 09:12:42;;;;;;;0.77;0.65;;;5.90;99.90;;;;;;5016085;28;20053;-71
2023/12/19 09:15:08;;;;;;;1.17;0.70;;;5.90;99.90;;;;;;5016077;28;20497;-71
2023/12/19 09:17:34;;;;;;;2.22;1.10;;;5.90;99.90;;;;;;5023370;28;20099;-70
2023/12/19 09:20:00;;;;;;;1.10;0.73;;;5.90;99.90;;;;;;5025098;28;20040;-70
2023/12/19 09:22:25;;;;;;;1.27;0.50;;;5.90;99.90;;;;;;5016981;28;20030;-71
2023/12/19 09:24:51;;;;;;;1.52;0.73;;;5.90;99.90;;;;;;5037373;28;20037;-71
2023/12/19 09:27:17;;;;;;;1.30;0.75;;;5.90;99.90;;;;;;5019150;28;20037;-71
2023/12/19 09:29:42;;;;;;;1.13;0.80;;;6.00;99.90;;;;;;5025461;28;20040;-70
2023/12/19 09:32:09;;;;;;;1.05;0.63;;;5.90;99.90;;;;;;5027916;28;20043;-71
2023/12/19 09:34:36;;;;;;;0.90;0.63;;;6.00;99.90;;;;;;5012700;28;20044;-71
2023/12/19 09:37:02;;;;;;;1.38;0.52;;;6.00;99.90;;;;;;5017397;28;20029;-70
2023/12/19 09:39:29;;;;;;;1.10;0.68;;;5.90;99.90;;;;;;5027142;28;20033;-71
2023/12/19 09:41:56;;;;;;;1.20;0.80;;;6.00;99.90;;;;;;5023384;28;20035;-71
2023/12/19 09:44:22;;;;;;;1.33;0.70;;;6.00;99.90;;;;;;5022990;28;20037;-71
2023/12/19 09:46:49;;;;;;;1.10;0.82;;;6.00;99.90;;;;;;5033649;28;20017;-71
2023/12/19 09:49:22;;;;;;;1.23;0.60;;;6.00;99.90;;;;;;5018452;28;20125;-70
2023/12/19 09:51:51;;;;;;;1.55;0.77;;;6.00;99.90;;;;;;5014626;28;20419;-71
2023/12/19 09:54:19;;;;;;;0.63;0.63;;;6.10;99.90;;;;;;5025868;28;20340;-71
2023/12/19 09:56:46;;;;;;;1.02;0.60;;;6.00;99.90;;;;;;5018477;28;20032;-71
2023/12/19 09:59:14;;;;;;;1.45;0.85;;;6.10;99.90;;;;;;5023784;28;20045;-71
2023/12/19 10:01:40;;;;;;;1.38;0.77;;;6.10;99.90;;;;;;5041650;28;20080;-71
2023/12/19 10:04:13;;;;;;;1.50;0.90;;;6.10;99.90;;;;;;5015410;28;20041;-72
2023/12/19 10:06:52;;;;;;;0.77;0.65;;;6.10;99.90;;;;;;5015577;28;20461;-71
2023/12/19 10:09:17;;;;;;;0.98;0.60;;;6.10;99.90;;;;;;5033360;28;20033;-71
2023/12/19 10:11:43;;;;;;;1.88;0.95;;;6.10;99.90;;;;;;5019377;28;20045;-71
2023/12/19 10:14:14;;;;;;;1.50;0.73;;;6.10;99.90;;;;;;5019386;28;20360;-72
2023/12/19 10:16:42;;;;;;;0.75;0.60;;;6.10;99.90;;;;;;5023477;28;20033;-72
2023/12/19 10:19:13;;;;;;;1.13;0.60;;;6.10;99.90;;;;;;5017357;28;20026;-72
2023/12/19 10:21:39;;;;;;;0.85;0.40;;;6.10;99.90;;;;;;5012526;28;20029;-72
2023/12/19 10:24:09;;;;;;;1.90;0.85;;;6.10;99.90;;;;;;5015158;28;20036;-73
2023/12/19 10:26:34;;;;;;;1.35;0.70;;;6.10;99.90;;;;;;5011830;28;20087;-72
2023/12/19 10:29:00;;;;;;;1.48;0.50;;;6.10;99.90;;;;;;5024264;28;20045;-72
2023/12/19 10:31:25;;;;;;;1.35;0.90;;;6.10;99.90;;;;;;5011739;28;20179;-73
2023/12/19 10:33:55;;;;;;;0.80;0.60;;;6.10;99.90;;;;;;5021588;28;20056;-72
2023/12/19 10:36:23;;;;;;;1.45;0.70;;;6.10;99.90;;;;;;5034238;28;20480;-72
2023/12/19 10:38:49;;;;;;;0.73;0.60;;;6.20;99.90;;;;;;5020349;28;20143;-72
2023/12/19 10:41:32;;;;;;;1.25;0.93;;;6.10;99.90;;;;;;5018344;28;20056;-72
2023/12/19 10:43:59;;;;;;;1.15;0.50;;;6.20;99.90;;;;;;5011038;28;20510;-72
2023/12/19 10:46:30;;;;;;;1.25;0.70;;;6.20;99.90;;;;;;5032433;28;20333;-72
2023/12/19 10:48:59;;;;;;;;;;;6.10;99.90;;;;;;5015477;28;20565;-71
2023/12/19 10:51:35;;;;;;;0.75;0.40;;;6.20;99.90;;;;;;5016336;28;20318;-72
2023/12/19 10:54:12;;;;;;;1.05;0.77;;;6.20;99.90;;;;;;5012049;28;20033;-71
2023/12/19 10:57:15;;;;;;;1.10;0.50;;;6.20;99.90;;;;;;5019783;28;20462;-72
2023/12/19 11:00:09;;;;;;;1.20;0.52;;;6.20;99.90;;;;;;5013154;28;20101;-72
2023/12/19 11:02:48;;;;;;;1.48;0.80;;;6.20;99.90;;;;;;5014693;28;20025;-72
2023/12/19 11:05:23;;;;;;;0.68;0.68;;;6.20;99.90;;;;;;5022839;28;20039;-73
2023/12/19 11:07:51;;;;;;;0.63;0.45;;;6.20;99.90;;;;;;5022357;28;20048;-72
2023/12/19 11:10:20;;;;;;;1.17;0.73;;;6.30;99.90;;;;;;5020956;28;20041;-71
2023/12/19 11:12:46;;;;;;;1.00;0.68;;;6.30;99.90;;;;;;5018182;28;20097;-72
2023/12/19 11:15:12;;;;;;;0.80;0.68;;;6.30;99.90;;;;;;5020488;28;20053;-71
2023/12/19 11:17:55;;;;;;;1.63;0.70;;;6.30;99.90;;;;;;5017377;28;20406;-72
2023/12/19 11:20:39;;;;;;;0.75;0.55;;;6.30;99.90;;;;;;5021959;28;20103;-71
2023/12/19 11:23:49;;;;;;;0.95;0.80;;;6.30;99.90;;;;;;5008715;28;20125;-73
2023/12/19 11:26:21;;;;;;;1.45;0.73;;;6.40;99.90;;;;;;4944058;28;20154;-72
2023/12/19 11:28:46;;;;;;;0.75;0.63;;;6.40;99.90;;;;;;5015266;28;20090;-72
2023/12/19 11:31:32;;;;;;;1.33;0.60;;;6.40;99.90;;;;;;5028719;28;20156;-72
2023/12/19 11:34:01;;;;;;;0.90;0.50;;;6.40;99.90;;;;;;5009922;28;20508;-72
2023/12/19 11:36:26;;;;;;;1.40;0.60;;;6.40;99.90;;;;;;5012353;28;20492;-72
2023/12/19 11:39:21;;;;;;;1.05;0.50;;;6.50;99.90;;;;;;5016857;28;20034;-72
2023/12/19 11:41:47;;;;;;;1.02;0.60;;;6.50;99.90;;;;;;5020340;28;20120;-72
2023/12/19 11:44:35;;;;;;;0.82;0.65;;;6.40;99.90;;;;;;5015447;28;20121;-72
2023/12/19 11:47:16;;;;;;;1.27;0.70;;;6.50;99.90;;;;;;5013225;28;20021;-72
2023/12/19 11:49:43;;;;;;;0.88;0.50;;;6.50;99.90;;;;;;5017178;28;20041;-72
2023/12/19 11:52:31;;;;;;;0.82;0.70;;;6.50;99.90;;;;;;5022068;28;20044;-72
2023/12/19 11:54:57;;;;;;;1.40;0.68;;;6.50;99.90;;;;;;5013693;28;20033;-72
2023/12/19 11:57:22;;;;;;;0.80;0.52;;;6.50;99.90;;;;;;5024230;28;20518;-73
2023/12/19 11:59:50;;;;;;;1.65;0.70;;;6.50;99.90;;;;;;5020001;28;20369;-72
2023/12/19 12:02:27;;;;;;;1.38;0.60;;;6.50;99.90;;;;;;5009927;28;20105;-73
2023/12/19 12:05:13;;;;;;;0.57;0.55;;;6.60;99.90;;;;;;5016232;28;20108;-73
2023/12/19 12:07:49;;;;;;;0.50;0.50;;;6.60;99.90;;;;;;5020578;28;20075;-73
2023/12/19 12:10:23;;;;;;;1.15;0.60;;;6.60;99.90;;;;;;5019107;28;20515;-73
2023/12/19 12:12:49;;;;;;;1.50;0.90;;;6.60;99.90;;;;;;5018115;28;20040;-72
2023/12/19 12:15:19;;;;;;;1.30;0.52;;;6.60;99.90;;;;;;5019324;28;20029;-72
2023/12/19 12:17:45;;;;;;;0.45;0.40;;;6.60;99.90;;;;;;5023418;28;20037;-73
2023/12/19 12:20:10;;;;;;;0.93;0.63;;;6.60;99.90;;;;;;5009438;28;20037;-73
2023/12/19 12:22:36;;;;;;;0.88;0.40;;;6.70;99.90;;;;;;5022488;28;20034;-72
2023/12/19 12:25:02;;;;;;;0.85;0.60;;;6.60;99.90;;;;;;5022263;28;20140;-72
2023/12/19 12:27:28;;;;;;;1.15;0.68;;;6.70;99.90;;;;;;5028051;28;20109;-72
2023/12/19 12:29:54;;;;;;;0.73;0.50;;;6.70;99.90;;;;;;5023122;28;20393;-72
2023/12/19 12:32:20;;;;;;;0.50;0.50;;;6.70;99.90;;;;;;5014121;28;20060;-73
2023/12/19 12:34:46;;;;;;;1.15;0.70;;;6.70;99.90;;;;;;5034868;28;20030;-73
2023/12/19 12:37:16;;;;;;;0.50;0.45;;;6.70;99.90;;;;;;5020067;28;20534;-73
2023/12/19 12:39:42;;;;;;;0.88;0.52;;;6.70;99.90;;;;;;5020760;28;20125;-73
2023/12/19 12:42:07;;;;;;;1.50;0.90;;;6.70;99.90;;;;;;5022172;28;20735;-73
2023/12/19 12:44:33;;;;;;;1.35;0.93;;;6.70;99.90;;;;;;5034872;28;20327;-72
2023/12/19 12:47:00;;;;;;;1.48;0.80;;;6.70;99.90;;;;;;5015834;28;20091;-73
2023/12/19 12:49:25;;;;;;;1.52;0.82;;;6.80;99.90;;;;;;5027431;28;20018;-73
2023/12/19 12:51:59;;;;;;;2.60;1.17;;;6.80;99.90;;;;;;5025138;28;20104;-74
2023/12/19 12:54:24;;;;;;;1.63;0.80;;;6.80;99.90;;;;;;5015646;28;20030;-73